Time;durP1;ratioP1;P1;durP2;ratioP2;P2;SDS_P1;SDS_P2;PMS_P1;PMS_P2;Temp;Humidity;BMP_temperature;BMP_pressure;BME280_temperature;BME280_humidity;BME280_pressure;Samples;Min_cycle;Max_cycle;Signal;HPM_P1;HPM_P2
2022/04/04 00:01:00;;;;;;;3.05;2.78;;;20.20;44.90;;;;;;5014264;28;20200;-67
2022/04/04 00:03:26;;;;;;;3.45;3.15;;;20.20;44.80;;;;;;4997627;28;20176;-67
2022/04/04 00:05:52;;;;;;;3.45;3.15;;;20.10;44.60;;;;;;5014045;28;20277;-67
2022/04/04 00:08:17;;;;;;;3.40;3.10;;;20.10;44.60;;;;;;5014067;28;20230;-68
2022/04/04 00:10:44;;;;;;;3.60;3.00;;;20.10;44.60;;;;;;5013732;28;20203;-67
2022/04/04 00:13:09;;;;;;;3.38;2.78;;;20.10;44.70;;;;;;4997115;28;20216;-67
2022/04/04 00:15:35;;;;;;;3.33;3.03;;;20.10;44.50;;;;;;5013827;28;20216;-67
2022/04/04 00:18:07;;;;;;;2.92;2.72;;;20.10;44.60;;;;;;5015242;28;20184;-67
2022/04/04 00:20:33;;;;;;;2.92;2.72;;;20.10;44.60;;;;;;4997640;28;20331;-67
2022/04/04 00:22:58;;;;;;;2.90;2.60;;;20.10;44.70;;;;;;5013615;28;20259;-67
2022/04/04 00:25:24;;;;;;;3.38;2.88;;;20.10;44.70;;;;;;5013840;28;20635;-67
2022/04/04 00:27:50;;;;;;;2.50;2.30;;;20.10;44.70;;;;;;5013396;28;20203;-67
2022/04/04 00:30:17;;;;;;;2.72;2.35;;;20.10;44.70;;;;;;5013579;28;20220;-67
2022/04/04 00:32:43;;;;;;;2.50;2.30;;;20.10;44.70;;;;;;5013355;28;20565;-67
2022/04/04 00:35:09;;;;;;;2.70;2.50;;;20.10;44.70;;;;;;5029976;28;20208;-67
2022/04/04 00:37:37;;;;;;;3.25;2.85;;;20.10;44.70;;;;;;5014601;28;20219;-67
2022/04/04 00:40:05;;;;;;;2.88;2.67;;;20.10;44.70;;;;;;5014563;28;20266;-67
2022/04/04 00:42:32;;;;;;;2.88;2.63;;;20.10;44.70;;;;;;5013041;28;20184;-67
2022/04/04 00:44:58;;;;;;;3.25;2.70;;;20.10;44.70;;;;;;5014351;28;20234;-65
2022/04/04 00:47:23;;;;;;;3.30;3.00;;;20.10;44.60;;;;;;5014303;28;20184;-67
2022/04/04 00:49:49;;;;;;;3.03;2.72;;;20.10;44.50;;;;;;5013383;28;20303;-67
2022/04/04 00:52:16;;;;;;;3.28;2.97;;;20.10;44.50;;;;;;5014436;28;20188;-67
2022/04/04 00:54:43;;;;;;;3.03;2.72;;;20.10;44.40;;;;;;5014254;28;20192;-67
2022/04/04 00:57:09;;;;;;;3.00;2.70;;;20.10;44.30;;;;;;4980783;28;20220;-67
2022/04/04 00:59:36;;;;;;;3.40;3.00;;;20.10;44.30;;;;;;4996605;28;20208;-67
2022/04/04 01:02:03;;;;;;;2.90;2.63;;;20.10;44.40;;;;;;4996495;28;20180;-67
2022/04/04 01:04:29;;;;;;;2.90;2.70;;;20.10;44.40;;;;;;4980470;28;20235;-67
2022/04/04 01:06:55;;;;;;;2.92;2.72;;;20.00;44.10;;;;;;5012844;28;20184;-67
2022/04/04 01:09:21;;;;;;;3.40;3.10;;;20.10;44.30;;;;;;4996462;28;20184;-67
2022/04/04 01:12:11;;;;;;;2.30;2.05;;;20.10;44.30;;;;;;4986699;28;20199;-67
2022/04/04 01:14:48;;;;;;;2.90;2.60;;;20.10;44.40;;;;;;4993075;28;20667;-67
2022/04/04 01:17:21;;;;;;;2.88;2.65;;;20.10;45.10;;;;;;5012627;28;20271;-67
2022/04/04 01:19:47;;;;;;;2.80;2.47;;;20.10;44.40;;;;;;4996358;28;20208;-67
2022/04/04 01:22:14;;;;;;;2.35;2.15;;;20.10;44.50;;;;;;4995946;28;20675;-67
2022/04/04 01:24:41;;;;;;;2.47;2.22;;;20.10;44.40;;;;;;5012236;28;20184;-68
2022/04/04 01:27:09;;;;;;;3.03;2.83;;;20.10;44.30;;;;;;4996104;28;20260;-66
2022/04/04 01:29:36;;;;;;;3.20;2.90;;;20.10;44.30;;;;;;5012199;28;20204;-67
2022/04/04 01:32:04;;;;;;;2.97;2.60;;;20.10;44.30;;;;;;5012418;28;20250;-67
2022/04/04 01:34:30;;;;;;;3.20;2.90;;;20.10;44.30;;;;;;5012599;28;20195;-67
2022/04/04 01:36:57;;;;;;;3.35;2.42;;;20.10;44.20;;;;;;4995991;28;20215;-67
2022/04/04 01:39:23;;;;;;;3.47;3.10;;;20.10;44.10;;;;;;5012457;28;20261;-66
2022/04/04 01:41:50;;;;;;;3.17;2.88;;;20.10;44.10;;;;;;5012003;28;20210;-66
2022/04/04 01:44:17;;;;;;;2.88;2.67;;;20.10;44.10;;;;;;4990027;28;20215;-67
2022/04/04 01:46:42;;;;;;;2.75;2.55;;;20.00;43.90;;;;;;5012210;28;20192;-67
2022/04/04 01:49:09;;;;;;;3.35;2.50;;;20.00;44.00;;;;;;4995762;28;20192;-67
2022/04/04 01:51:37;;;;;;;2.35;2.15;;;20.00;44.10;;;;;;5012103;28;20187;-67
2022/04/04 01:54:04;;;;;;;2.58;2.38;;;20.00;44.00;;;;;;5012076;28;20223;-67
2022/04/04 01:56:31;;;;;;;2.75;2.53;;;20.00;44.10;;;;;;5011888;28;20216;-67
2022/04/04 01:58:59;;;;;;;2.35;2.15;;;20.00;44.10;;;;;;5012550;28;20243;-66
2022/04/04 02:01:26;;;;;;;2.50;2.30;;;20.00;44.10;;;;;;5013019;28;20200;-67
2022/04/04 02:03:56;;;;;;;2.25;2.03;;;20.00;44.10;;;;;;5011838;28;20184;-67
2022/04/04 02:06:23;;;;;;;2.80;2.60;;;20.00;44.20;;;;;;5012108;28;20187;-67
2022/04/04 02:08:50;;;;;;;2.80;2.40;;;20.00;44.20;;;;;;5011808;28;20676;-65
2022/04/04 02:11:19;;;;;;;3.50;2.47;;;20.00;44.10;;;;;;5013036;28;20239;-67
2022/04/04 02:13:46;;;;;;;2.38;2.17;;;20.00;44.10;;;;;;5012696;28;20202;-67
2022/04/04 02:16:12;;;;;;;3.00;2.80;;;20.00;44.00;;;;;;5011802;28;20247;-67
2022/04/04 02:18:38;;;;;;;2.72;2.53;;;20.00;44.00;;;;;;5012107;28;20258;-67
2022/04/04 02:21:06;;;;;;;2.88;2.53;;;20.00;44.00;;;;;;4978971;28;20212;-67
2022/04/04 02:23:32;;;;;;;2.70;2.50;;;20.00;43.90;;;;;;4979217;28;20187;-67
2022/04/04 02:25:59;;;;;;;2.90;2.60;;;20.00;43.80;;;;;;4979176;28;20198;-67
2022/04/04 02:28:27;;;;;;;2.70;2.50;;;20.00;43.90;;;;;;4979387;28;20196;-67
2022/04/04 02:30:55;;;;;;;2.58;2.38;;;20.00;43.80;;;;;;5037398;23;20227;-69
2022/04/04 02:33:22;;;;;;;2.60;2.40;;;20.00;43.90;;;;;;5031937;28;20195;-70
2022/04/04 02:35:52;;;;;;;2.40;2.20;;;20.00;43.90;;;;;;5030285;28;20226;-69
2022/04/04 02:38:22;;;;;;;1.90;1.80;;;20.00;43.90;;;;;;5031099;28;20191;-69
2022/04/04 02:40:47;;;;;;;2.20;2.10;;;20.00;43.90;;;;;;5027735;28;20204;-69
2022/04/04 02:43:13;;;;;;;2.13;1.92;;;20.00;43.90;;;;;;5019171;28;20571;-69
2022/04/04 02:45:39;;;;;;;1.95;1.75;;;20.00;43.90;;;;;;5027412;28;20186;-69
2022/04/04 02:48:06;;;;;;;2.13;1.95;;;20.00;43.90;;;;;;5011046;28;20229;-69
2022/04/04 02:50:34;;;;;;;2.42;2.22;;;20.00;43.90;;;;;;5010003;28;20200;-70
2022/04/04 02:53:00;;;;;;;1.90;1.77;;;20.00;43.90;;;;;;5010888;28;20237;-69
2022/04/04 02:58:11;;;;;;;2.35;2.15;;;19.90;43.80;;;;;;5008251;28;20203;-69
2022/04/04 03:00:37;;;;;;;2.40;2.20;;;20.00;43.80;;;;;;5008018;28;20201;-69
2022/04/04 03:03:03;;;;;;;3.10;2.47;;;20.00;43.80;;;;;;4991471;28;20193;-70
2022/04/04 03:05:29;;;;;;;2.38;2.17;;;20.00;43.70;;;;;;5007986;28;20268;-70
2022/04/04 03:07:54;;;;;;;2.58;2.03;;;20.00;43.70;;;;;;5007743;28;20280;-69
2022/04/04 03:10:20;;;;;;;2.63;2.35;;;20.00;43.50;;;;;;5007920;28;20204;-69
2022/04/04 03:12:51;;;;;;;2.78;2.35;;;20.00;43.60;;;;;;5001918;28;20629;-69
2022/04/04 03:15:21;;;;;;;2.30;2.10;;;19.90;43.40;;;;;;5007691;28;20204;-69
2022/04/04 03:17:51;;;;;;;2.40;2.20;;;20.00;43.60;;;;;;4991309;28;20193;-69
2022/04/04 03:20:19;;;;;;;1.92;1.75;;;19.90;43.40;;;;;;5007704;28;20223;-69
2022/04/04 03:22:51;;;;;;;2.33;2.13;;;19.90;43.60;;;;;;5007390;28;20271;-69
2022/04/04 03:25:18;;;;;;;1.90;1.80;;;19.90;43.50;;;;;;5007724;28;20181;-69
2022/04/04 03:27:46;;;;;;;2.10;2.00;;;20.00;43.60;;;;;;5007898;28;20188;-69
2022/04/04 03:30:17;;;;;;;2.40;2.13;;;19.90;43.50;;;;;;5007430;28;20213;-70
2022/04/04 03:32:45;;;;;;;1.80;1.70;;;19.90;43.60;;;;;;5007509;28;20533;-69
2022/04/04 03:35:15;;;;;;;2.08;1.88;;;20.00;43.60;;;;;;5007870;28;20216;-69
2022/04/04 03:37:45;;;;;;;1.80;1.70;;;19.90;43.60;;;;;;5007720;28;20192;-69
2022/04/04 03:40:13;;;;;;;2.17;1.98;;;20.00;43.60;;;;;;5007556;28;20688;-70
2022/04/04 03:42:41;;;;;;;2.08;1.88;;;19.90;43.50;;;;;;5015909;28;20192;-69
2022/04/04 03:45:11;;;;;;;2.58;2.17;;;19.90;43.50;;;;;;5011884;28;20195;-69
2022/04/04 03:47:37;;;;;;;2.35;2.00;;;19.90;43.40;;;;;;5013033;28;20180;-69
2022/04/04 03:50:05;;;;;;;2.60;2.40;;;19.90;43.30;;;;;;5015454;28;20246;-69
2022/04/04 03:52:31;;;;;;;2.00;1.90;;;19.90;43.20;;;;;;5015239;28;20607;-69
2022/04/04 03:54:57;;;;;;;2.70;2.50;;;19.90;43.20;;;;;;5015332;28;20173;-68
2022/04/04 03:57:23;;;;;;;3.55;3.05;;;19.90;43.20;;;;;;5030480;28;20188;-69
2022/04/04 03:59:49;;;;;;;3.20;2.90;;;19.90;43.20;;;;;;5015533;28;20204;-69
2022/04/04 04:02:15;;;;;;;2.60;2.40;;;19.90;43.20;;;;;;5030310;28;20180;-69
2022/04/04 04:04:41;;;;;;;2.50;2.10;;;19.90;43.20;;;;;;5030477;28;20188;-69
2022/04/04 04:07:10;;;;;;;2.30;2.10;;;19.90;43.40;;;;;;5013882;28;20195;-69
2022/04/04 04:09:37;;;;;;;2.33;2.13;;;19.90;43.30;;;;;;5015001;28;20259;-69
2022/04/04 04:12:04;;;;;;;2.10;1.90;;;19.90;43.40;;;;;;5028809;28;20211;-69
2022/04/04 04:14:29;;;;;;;2.20;2.00;;;19.90;43.30;;;;;;5014900;28;20195;-69
2022/04/04 04:16:55;;;;;;;2.35;2.15;;;19.90;43.30;;;;;;5013697;28;20204;-69
2022/04/04 04:22:05;;;;;;;2.50;2.30;;;19.90;43.30;;;;;;5013582;28;20226;-69
2022/04/04 04:24:31;;;;;;;2.00;1.80;;;19.90;43.40;;;;;;5013782;28;20184;-69
2022/04/04 04:26:57;;;;;;;2.25;2.05;;;19.90;43.30;;;;;;5013572;28;20265;-69
2022/04/04 04:29:22;;;;;;;2.40;2.20;;;19.90;43.30;;;;;;5014835;28;20184;-68
2022/04/04 04:31:48;;;;;;;2.42;2.22;;;19.90;43.20;;;;;;4997300;28;20223;-67
2022/04/04 04:34:14;;;;;;;2.45;2.20;;;19.90;43.20;;;;;;5009977;28;20196;-68
2022/04/04 04:36:40;;;;;;;2.47;2.28;;;19.90;43.20;;;;;;5010110;28;20208;-68
2022/04/04 04:39:07;;;;;;;2.40;2.20;;;19.90;43.00;;;;;;5010150;28;20247;-70
2022/04/04 04:41:33;;;;;;;2.85;2.55;;;19.90;43.00;;;;;;5010456;28;20262;-69
2022/04/04 04:44:02;;;;;;;3.55;2.40;;;19.80;43.60;;;;;;5004970;28;20188;-69
2022/04/04 04:46:33;;;;;;;1.98;1.88;;;19.80;42.90;;;;;;5014339;28;20191;-69
2022/04/04 04:49:00;;;;;;;2.10;2.00;;;19.80;42.80;;;;;;5013129;28;20192;-69
2022/04/04 04:51:26;;;;;;;1.80;1.70;;;19.80;43.00;;;;;;5029801;28;20742;-69
2022/04/04 04:53:52;;;;;;;2.78;2.15;;;19.80;42.90;;;;;;5014060;28;20188;-69
2022/04/04 04:56:18;;;;;;;1.80;1.70;;;19.80;42.70;;;;;;5029465;28;20223;-70
2022/04/04 04:58:44;;;;;;;1.67;1.58;;;19.80;43.00;;;;;;5012619;28;20192;-69
2022/04/04 05:01:10;;;;;;;2.17;1.98;;;19.80;43.00;;;;;;4996814;28;20208;-68
2022/04/04 05:03:36;;;;;;;1.92;1.83;;;19.80;42.90;;;;;;5013973;28;20191;-69
2022/04/04 05:06:02;;;;;;;2.10;1.92;;;19.80;42.90;;;;;;5012849;28;20577;-70
2022/04/04 05:08:29;;;;;;;1.85;1.75;;;19.80;42.90;;;;;;5012895;28;20168;-70
2022/04/04 05:10:55;;;;;;;2.00;1.90;;;19.80;43.20;;;;;;5028391;28;20238;-70
2022/04/04 05:13:21;;;;;;;2.50;2.30;;;19.80;42.90;;;;;;5006971;28;20185;-70
2022/04/04 05:15:48;;;;;;;2.00;1.90;;;19.80;42.80;;;;;;5000660;28;20719;-70
2022/04/04 05:18:13;;;;;;;2.15;2.05;;;19.80;42.80;;;;;;4995134;28;20587;-70
2022/04/04 05:20:39;;;;;;;2.50;2.30;;;19.80;42.70;;;;;;5011837;28;20223;-69
2022/04/04 05:23:05;;;;;;;2.70;2.25;;;19.80;42.70;;;;;;5014599;28;20181;-70
2022/04/04 05:25:31;;;;;;;2.55;2.22;;;19.80;42.60;;;;;;5028520;28;20274;-70
2022/04/04 05:27:57;;;;;;;2.47;2.28;;;19.80;42.50;;;;;;5028469;28;20188;-69
2022/04/04 05:30:23;;;;;;;2.55;2.35;;;19.80;42.50;;;;;;5028396;28;20215;-69
2022/04/04 05:32:49;;;;;;;2.83;2.63;;;19.80;42.50;;;;;;5028231;28;20220;-69
2022/04/04 05:35:19;;;;;;;2.80;2.60;;;19.80;42.40;;;;;;5028373;28;20259;-70
2022/04/04 05:37:45;;;;;;;3.03;2.72;;;19.80;42.40;;;;;;5024168;28;20192;-70
2022/04/04 05:40:11;;;;;;;2.70;2.50;;;19.80;42.40;;;;;;5045957;28;20203;-70
2022/04/04 05:42:37;;;;;;;2.50;2.17;;;19.80;42.40;;;;;;5014926;28;20199;-69
2022/04/04 05:45:03;;;;;;;2.30;2.10;;;19.80;42.40;;;;;;5012295;28;20180;-70
2022/04/04 05:47:29;;;;;;;2.53;2.33;;;19.80;42.50;;;;;;5016690;28;20248;-69
2022/04/04 05:49:56;;;;;;;2.25;2.10;;;19.90;42.60;;;;;;5027639;28;20208;-69
2022/04/04 05:52:23;;;;;;;2.20;2.00;;;19.80;42.50;;;;;;5012226;28;20199;-70
2022/04/04 05:54:57;;;;;;;2.30;2.10;;;19.90;42.60;;;;;;5011954;28;20269;-69
2022/04/04 05:57:25;;;;;;;2.30;2.10;;;19.90;42.60;;;;;;5013438;28;20306;-70
2022/04/04 05:59:51;;;;;;;2.47;2.10;;;19.90;42.60;;;;;;5013206;28;20208;-69
2022/04/04 06:02:19;;;;;;;2.00;1.90;;;19.90;42.70;;;;;;5012999;28;20192;-70
2022/04/04 06:04:46;;;;;;;2.25;2.05;;;19.90;42.70;;;;;;5012175;28;20184;-70
2022/04/04 06:07:11;;;;;;;2.30;2.10;;;19.90;42.70;;;;;;5011837;28;20238;-69
2022/04/04 06:09:37;;;;;;;2.13;2.03;;;19.90;42.60;;;;;;5011711;28;20184;-70
2022/04/04 06:12:04;;;;;;;2.63;2.42;;;19.90;42.70;;;;;;5011498;28;20635;-69
2022/04/04 06:14:30;;;;;;;2.90;2.70;;;19.90;42.60;;;;;;5011836;28;20180;-69
2022/04/04 06:16:55;;;;;;;2.70;2.50;;;19.90;42.60;;;;;;4995383;28;20204;-70
2022/04/04 06:19:21;;;;;;;3.00;2.80;;;19.90;42.50;;;;;;5012892;28;20234;-69
2022/04/04 06:21:47;;;;;;;3.17;2.90;;;19.90;42.60;;;;;;4995108;28;20577;-69
2022/04/04 06:24:13;;;;;;;2.88;2.67;;;19.90;42.50;;;;;;5011716;28;20183;-69
2022/04/04 06:26:40;;;;;;;3.85;2.88;;;19.90;42.50;;;;;;5011352;28;20215;-70
2022/04/04 06:29:09;;;;;;;2.97;2.78;;;19.90;42.50;;;;;;5011558;28;20188;-69
2022/04/04 06:31:39;;;;;;;3.67;2.60;;;19.90;42.50;;;;;;5011541;28;20211;-69
2022/04/04 06:34:05;;;;;;;2.92;2.63;;;19.90;42.50;;;;;;5011475;28;20652;-70
2022/04/04 06:36:32;;;;;;;2.53;2.33;;;19.90;42.50;;;;;;5012373;28;20203;-69
2022/04/04 06:38:58;;;;;;;2.22;2.03;;;20.00;42.60;;;;;;5011278;28;20188;-70
2022/04/04 06:41:24;;;;;;;2.53;2.33;;;20.10;42.60;;;;;;5011160;28;20214;-70
2022/04/04 06:43:51;;;;;;;2.72;2.53;;;20.10;42.60;;;;;;5009627;28;20225;-70
2022/04/04 06:46:18;;;;;;;2.55;2.25;;;20.10;42.50;;;;;;5011144;28;20188;-70
2022/04/04 06:48:45;;;;;;;2.83;2.38;;;20.20;42.60;;;;;;5011472;28;20334;-70
2022/04/04 06:51:11;;;;;;;2.80;2.60;;;20.20;42.60;;;;;;5011213;28;20294;-70
2022/04/04 06:53:38;;;;;;;2.63;2.42;;;20.20;42.50;;;;;;5011363;28;20184;-70
2022/04/04 06:56:04;;;;;;;2.72;2.53;;;20.20;42.50;;;;;;5028246;28;20595;-70
2022/04/04 06:58:30;;;;;;;2.92;2.60;;;20.20;42.50;;;;;;5010662;28;20257;-70
2022/04/04 07:00:57;;;;;;;2.53;2.33;;;20.20;42.50;;;;;;5027454;28;20207;-69
2022/04/04 07:03:23;;;;;;;3.30;3.05;;;20.30;42.60;;;;;;4994899;28;20192;-70
2022/04/04 07:05:49;;;;;;;3.75;3.38;;;20.30;42.50;;;;;;5011134;28;20192;-69
2022/04/04 07:08:15;;;;;;;4.15;3.75;;;20.30;42.50;;;;;;5010998;28;20227;-70
2022/04/04 07:10:41;;;;;;;4.22;3.83;;;20.30;42.50;;;;;;5011147;28;20251;-69
2022/04/04 07:13:07;;;;;;;4.03;3.72;;;20.30;42.50;;;;;;5011903;28;20271;-70
2022/04/04 07:15:33;;;;;;;3.60;3.30;;;20.40;42.60;;;;;;5011161;28;20238;-70
2022/04/04 07:18:00;;;;;;;3.95;3.50;;;20.40;42.60;;;;;;4994870;28;20195;-69
2022/04/04 07:20:26;;;;;;;3.78;3.45;;;20.40;42.50;;;;;;5010893;28;20239;-70
2022/04/04 07:22:51;;;;;;;4.00;3.70;;;20.40;42.60;;;;;;5012424;28;20303;-70
2022/04/04 07:25:17;;;;;;;4.63;4.18;;;20.40;42.40;;;;;;5031375;28;20243;-70
2022/04/04 07:27:46;;;;;;;4.75;4.35;;;20.40;42.50;;;;;;5014931;28;20275;-69
2022/04/04 07:30:16;;;;;;;4.47;4.07;;;20.50;42.40;;;;;;5015624;28;20214;-69
2022/04/04 07:32:42;;;;;;;4.60;4.20;;;20.50;42.40;;;;;;4998253;28;20179;-70
2022/04/04 07:35:11;;;;;;;4.43;4.03;;;20.50;42.40;;;;;;5015705;28;20184;-70
2022/04/04 07:37:43;;;;;;;4.05;3.72;;;20.60;42.40;;;;;;5030839;28;20238;-70
2022/04/04 07:40:14;;;;;;;3.80;3.50;;;20.60;42.50;;;;;;5012999;28;20203;-69
2022/04/04 07:43:01;;;;;;;4.15;3.85;;;20.60;42.50;;;;;;5015687;28;20183;-70
2022/04/04 07:45:29;;;;;;;3.40;3.10;;;20.60;42.50;;;;;;5014383;28;20184;-70
2022/04/04 07:47:56;;;;;;;3.35;3.05;;;20.60;42.50;;;;;;5014186;28;20253;-69
2022/04/04 07:50:22;;;;;;;3.75;3.45;;;20.70;42.60;;;;;;5014359;28;20295;-70
2022/04/04 07:52:48;;;;;;;4.10;3.70;;;20.60;42.50;;;;;;5014468;28;20224;-69
2022/04/04 07:55:13;;;;;;;3.80;3.50;;;20.70;42.60;;;;;;5014336;28;20397;-70
2022/04/04 07:57:40;;;;;;;3.25;3.05;;;20.70;42.60;;;;;;5014148;28;20195;-70
2022/04/04 08:00:08;;;;;;;3.80;3.50;;;20.70;42.60;;;;;;5014145;28;20200;-70
2022/04/04 08:02:35;;;;;;;3.22;2.92;;;20.70;42.60;;;;;;5013943;28;20220;-70
2022/04/04 08:05:01;;;;;;;3.70;3.40;;;20.80;42.70;;;;;;4997789;28;20271;-69
2022/04/04 08:07:27;;;;;;;3.40;3.17;;;20.80;42.70;;;;;;5014050;28;20223;-69
2022/04/04 08:09:53;;;;;;;3.70;3.40;;;20.70;42.70;;;;;;5013922;28;20200;-69
2022/04/04 08:12:19;;;;;;;3.72;3.15;;;20.80;42.70;;;;;;4997797;28;20180;-70
2022/04/04 08:14:47;;;;;;;3.00;2.80;;;20.80;42.70;;;;;;5029768;28;20192;-69
2022/04/04 08:17:14;;;;;;;3.17;2.97;;;20.80;42.70;;;;;;5013722;28;20200;-70
2022/04/04 08:19:40;;;;;;;3.35;3.05;;;20.80;42.70;;;;;;5030398;28;20200;-69
2022/04/04 08:22:05;;;;;;;3.30;3.10;;;20.80;42.70;;;;;;5014997;28;20176;-69
2022/04/04 08:24:31;;;;;;;2.88;2.67;;;20.90;42.80;;;;;;5013905;28;20654;-69
2022/04/04 08:26:57;;;;;;;3.00;2.80;;;20.80;42.70;;;;;;5013952;28;20670;-70
2022/04/04 08:29:25;;;;;;;2.90;2.70;;;20.80;42.80;;;;;;5014032;28;20219;-70
2022/04/04 08:31:51;;;;;;;2.60;2.30;;;20.90;42.80;;;;;;5066532;23;20701;-67
2022/04/04 08:34:16;;;;;;;3.03;2.83;;;20.90;42.80;;;;;;5051660;28;20186;-68
2022/04/04 08:36:42;;;;;;;3.15;2.85;;;20.90;42.80;;;;;;5036417;28;20261;-68
2022/04/04 08:39:08;;;;;;;2.35;2.17;;;20.90;42.90;;;;;;5036504;28;20202;-68
2022/04/04 08:41:37;;;;;;;2.67;2.47;;;20.90;42.90;;;;;;5033188;28;20294;-68
2022/04/04 08:44:05;;;;;;;3.00;2.70;;;20.90;42.90;;;;;;5034032;28;20192;-68
2022/04/04 08:46:33;;;;;;;2.70;2.50;;;20.90;42.90;;;;;;5037376;28;20198;-67
2022/04/04 08:49:04;;;;;;;2.88;2.50;;;20.90;42.90;;;;;;5034111;28;20246;-68
2022/04/04 08:51:31;;;;;;;2.60;2.40;;;20.90;43.00;;;;;;5033050;28;20679;-68
2022/04/04 08:53:56;;;;;;;2.67;2.47;;;20.90;43.00;;;;;;5032791;28;20191;-68
2022/04/04 08:56:24;;;;;;;2.63;2.42;;;21.00;43.00;;;;;;5032869;28;20298;-68
2022/04/04 08:58:55;;;;;;;2.65;2.40;;;20.90;43.00;;;;;;5033160;28;20207;-68
2022/04/04 09:01:24;;;;;;;2.50;2.30;;;21.00;43.10;;;;;;5033135;28;20298;-68
2022/04/04 09:04:16;;;;;;;2.50;2.30;;;21.00;43.00;;;;;;5049267;28;20251;-68
2022/04/04 09:07:01;;;;;;;2.30;2.10;;;21.00;43.00;;;;;;5032694;28;20179;-68
2022/04/04 09:09:41;;;;;;;2.65;2.45;;;21.00;43.00;;;;;;5049775;28;20257;-65
2022/04/04 09:12:13;;;;;;;2.60;2.40;;;21.00;43.00;;;;;;5032421;28;20211;-68
2022/04/04 09:14:52;;;;;;;2.30;2.10;;;21.00;43.10;;;;;;5028362;28;20615;-68
2022/04/04 09:17:25;;;;;;;2.45;2.25;;;21.00;43.10;;;;;;5049143;28;20206;-68
2022/04/04 09:19:51;;;;;;;2.20;2.05;;;21.00;43.00;;;;;;5049023;28;20179;-68
2022/04/04 09:22:19;;;;;;;2.35;2.15;;;21.00;43.00;;;;;;5032645;28;20203;-68
2022/04/04 09:25:02;;;;;;;3.05;1.90;;;21.00;43.10;;;;;;5032467;28;20183;-68
2022/04/04 09:27:33;;;;;;;2.05;1.95;;;21.00;43.10;;;;;;5049155;28;20175;-67
2022/04/04 09:30:19;;;;;;;2.38;2.17;;;21.10;43.20;;;;;;5032474;28;20192;-68
2022/04/04 09:32:46;;;;;;;2.70;2.50;;;21.10;43.20;;;;;;5032022;28;20194;-67
2022/04/04 09:35:14;;;;;;;2.40;2.20;;;21.10;43.20;;;;;;5032371;28;20230;-68
2022/04/04 09:37:48;;;;;;;2.30;2.10;;;21.00;43.20;;;;;;5032367;28;20179;-68
2022/04/04 09:40:21;;;;;;;2.03;1.92;;;21.00;43.30;;;;;;5032249;28;20184;-66
2022/04/04 09:42:52;;;;;;;2.10;2.00;;;21.00;43.30;;;;;;5021052;28;20298;-67
2022/04/04 09:45:25;;;;;;;2.17;1.98;;;21.00;43.30;;;;;;5032617;28;20178;-68
2022/04/04 09:47:58;;;;;;;1.92;1.83;;;21.00;43.30;;;;;;5031974;28;20196;-68
2022/04/04 09:50:59;;;;;;;2.30;2.20;;;21.00;43.40;;;;;;5031815;28;20178;-68
2022/04/04 09:53:30;;;;;;;2.00;1.90;;;21.00;43.30;;;;;;4991241;28;20188;-68
2022/04/04 09:56:00;;;;;;;2.00;1.90;;;21.00;43.30;;;;;;5024791;28;20306;-68
2022/04/04 09:58:31;;;;;;;2.17;2.00;;;21.00;43.30;;;;;;5032080;28;20269;-68
2022/04/04 10:00:59;;;;;;;2.00;1.90;;;21.00;43.40;;;;;;5032567;28;20234;-68
2022/04/04 10:03:25;;;;;;;2.40;2.20;;;21.00;43.40;;;;;;5048069;28;20236;-68
2022/04/04 10:05:58;;;;;;;2.05;1.95;;;21.10;43.40;;;;;;5048121;28;20190;-68
2022/04/04 10:08:26;;;;;;;2.30;2.10;;;21.00;43.40;;;;;;5048408;28;20181;-68
2022/04/04 10:10:54;;;;;;;2.17;2.08;;;21.00;43.50;;;;;;5047918;28;20203;-68
2022/04/04 10:13:21;;;;;;;1.80;1.70;;;21.00;43.40;;;;;;5054808;28;20187;-68
2022/04/04 10:15:48;;;;;;;1.98;1.88;;;21.00;43.40;;;;;;5031324;28;20764;-68
2022/04/04 10:18:15;;;;;;;1.88;1.77;;;21.00;43.40;;;;;;5031709;28;20195;-68
2022/04/04 10:20:42;;;;;;;2.03;1.92;;;21.00;43.40;;;;;;5031262;28;20203;-68
2022/04/04 10:23:13;;;;;;;2.30;1.75;;;21.00;43.40;;;;;;5047934;28;20191;-68
2022/04/04 10:25:40;;;;;;;2.03;1.90;;;21.10;43.40;;;;;;5031718;28;20233;-68
2022/04/04 10:28:06;;;;;;;1.77;1.67;;;21.00;43.40;;;;;;5031343;28;20195;-68
2022/04/04 10:30:41;;;;;;;2.20;2.00;;;21.00;43.30;;;;;;5047588;28;20243;-68
2022/04/04 10:33:24;;;;;;;2.10;1.90;;;21.00;43.40;;;;;;5031208;28;20178;-69
2022/04/04 10:36:30;;;;;;;2.00;1.85;;;21.00;43.50;;;;;;5047561;28;20257;-69
2022/04/04 10:38:57;;;;;;;1.95;1.85;;;21.00;43.50;;;;;;5030639;28;20191;-68
2022/04/04 10:41:28;;;;;;;1.98;1.77;;;21.10;43.60;;;;;;5042402;28;20211;-68
2022/04/04 10:43:56;;;;;;;1.85;1.75;;;21.10;43.70;;;;;;5047699;28;20175;-68
2022/04/04 10:46:25;;;;;;;1.75;1.65;;;21.00;43.50;;;;;;5030728;28;20211;-69
2022/04/04 10:48:59;;;;;;;1.73;1.63;;;21.00;43.30;;;;;;5031020;28;20180;-68
2022/04/04 10:51:34;;;;;;;1.60;1.50;;;21.10;43.60;;;;;;5030621;28;20305;-68
2022/04/04 10:54:10;;;;;;;1.70;1.60;;;21.10;43.50;;;;;;5030338;28;20225;-69
2022/04/04 10:56:44;;;;;;;1.92;1.55;;;21.00;43.50;;;;;;5047502;28;20261;-69
2022/04/04 10:59:16;;;;;;;1.73;1.60;;;21.00;43.50;;;;;;5034908;28;20206;-68
2022/04/04 11:01:50;;;;;;;1.95;1.80;;;21.10;43.60;;;;;;5032272;28;20262;-69
2022/04/04 11:04:26;;;;;;;1.85;1.75;;;21.10;43.60;;;;;;5035036;28;20191;-68
2022/04/04 11:10:06;;;;;;;1.83;1.73;;;21.00;43.60;;;;;;5034917;28;20236;-69
2022/04/04 11:13:03;;;;;;;1.75;1.65;;;21.00;44.10;;;;;;5034995;28;20179;-69
2022/04/04 11:16:07;;;;;;;1.63;1.52;;;21.00;43.50;;;;;;5023311;28;20730;-68
2022/04/04 11:18:53;;;;;;;1.80;1.70;;;21.10;43.70;;;;;;4977588;28;20195;-69
2022/04/04 11:21:42;;;;;;;1.83;1.70;;;21.00;43.60;;;;;;5031886;28;20219;-68
2022/04/04 11:24:14;;;;;;;1.98;1.88;;;21.10;43.70;;;;;;5033995;28;20206;-69
2022/04/04 11:26:40;;;;;;;2.08;1.80;;;21.00;43.60;;;;;;5024235;28;20188;-67
2022/04/04 11:29:09;;;;;;;1.60;1.50;;;21.00;43.60;;;;;;5039514;28;20246;-68
2022/04/04 11:31:50;;;;;;;1.90;1.80;;;21.10;43.70;;;;;;5034316;28;20218;-68
2022/04/04 11:34:16;;;;;;;1.50;1.40;;;21.00;43.70;;;;;;5034322;28;20179;-68
2022/04/04 11:36:43;;;;;;;1.60;1.50;;;21.10;43.80;;;;;;5030995;28;20212;-69
2022/04/04 11:39:10;;;;;;;1.65;1.50;;;21.00;43.80;;;;;;5031101;28;20180;-68
2022/04/04 11:41:39;;;;;;;1.88;1.77;;;21.10;43.90;;;;;;5030969;28;20214;-69
2022/04/04 11:44:06;;;;;;;1.58;1.48;;;21.10;43.80;;;;;;5026413;28;20182;-68
2022/04/04 11:46:32;;;;;;;1.35;1.25;;;21.10;43.90;;;;;;5034335;28;20218;-68
2022/04/04 11:48:59;;;;;;;1.60;1.50;;;21.00;43.80;;;;;;5034437;28;20187;-68
2022/04/04 11:51:26;;;;;;;1.70;1.60;;;21.10;43.90;;;;;;5034045;28;20591;-68
2022/04/04 11:54:11;;;;;;;1.60;1.50;;;21.10;43.90;;;;;;5031839;28;20198;-66
2022/04/04 11:56:42;;;;;;;1.65;1.55;;;21.10;43.90;;;;;;5034109;28;20221;-67
2022/04/04 11:59:09;;;;;;;1.63;1.52;;;21.10;44.00;;;;;;5033813;28;20534;-68
2022/04/04 12:01:35;;;;;;;1.70;1.60;;;21.10;44.20;;;;;;5049007;28;20260;-67
2022/04/04 12:04:03;;;;;;;1.70;1.60;;;21.10;44.20;;;;;;5033956;28;20172;-67
2022/04/04 12:06:30;;;;;;;1.63;1.52;;;21.10;44.10;;;;;;5034438;28;20190;-68
2022/04/04 12:09:00;;;;;;;2.55;1.60;;;21.10;44.10;;;;;;5033757;28;20620;-69
2022/04/04 12:11:28;;;;;;;1.38;1.30;;;21.10;44.10;;;;;;5030716;28;20221;-68
2022/04/04 12:13:59;;;;;;;2.15;1.60;;;21.10;44.10;;;;;;5025816;28;20697;-68
2022/04/04 12:16:27;;;;;;;1.52;1.42;;;21.00;44.00;;;;;;5030120;28;20251;-69
2022/04/04 12:19:01;;;;;;;1.48;1.38;;;21.00;44.00;;;;;;5039624;28;20629;-68
2022/04/04 12:21:29;;;;;;;1.58;1.40;;;21.10;44.20;;;;;;5013874;28;20203;-67
2022/04/04 12:26:43;;;;;;;1.70;1.60;;;21.10;44.20;;;;;;5014999;28;20204;-69
2022/04/04 12:29:14;;;;;;;1.40;1.30;;;21.00;44.20;;;;;;5013964;28;20285;-68
2022/04/04 12:31:55;;;;;;;1.50;1.40;;;21.00;44.20;;;;;;5013721;28;20310;-68
2022/04/04 12:34:23;;;;;;;1.55;1.45;;;21.00;44.20;;;;;;5013459;28;20250;-68
2022/04/04 12:36:50;;;;;;;1.92;1.73;;;21.00;44.10;;;;;;5026524;28;20219;-68
2022/04/04 12:39:20;;;;;;;1.73;1.63;;;21.10;44.20;;;;;;5016756;28;20179;-68
2022/04/04 12:41:54;;;;;;;3.80;1.30;;;21.10;44.20;;;;;;5033532;28;20207;-68
2022/04/04 12:44:29;;;;;;;1.50;1.40;;;21.00;44.20;;;;;;5032915;28;20610;-68
2022/04/04 12:47:11;;;;;;;2.55;1.60;;;21.10;44.30;;;;;;5049766;28;20209;-68
2022/04/04 12:49:38;;;;;;;1.90;1.80;;;21.10;44.40;;;;;;5033131;28;20197;-68
2022/04/04 12:52:10;;;;;;;1.85;1.75;;;21.10;44.40;;;;;;5033385;28;20214;-68
2022/04/04 12:54:39;;;;;;;1.70;1.60;;;21.00;44.30;;;;;;5032847;28;20282;-68
2022/04/04 12:57:10;;;;;;;1.63;1.45;;;21.10;44.40;;;;;;5032770;28;20213;-68
2022/04/04 12:59:57;;;;;;;1.95;1.40;;;21.10;44.50;;;;;;5032952;28;20183;-68
2022/04/04 13:02:34;;;;;;;1.58;1.48;;;21.00;44.40;;;;;;5032894;28;20259;-68
2022/04/04 13:05:12;;;;;;;1.98;1.30;;;21.00;44.40;;;;;;5032704;28;20171;-68
2022/04/04 13:07:47;;;;;;;1.55;1.45;;;21.10;44.40;;;;;;5032734;28;20214;-68